Time;durP1;ratioP1;P1;durP2;ratioP2;P2;SDS_P1;SDS_P2;PMS_P1;PMS_P2;Temp;Humidity;BMP_temperature;BMP_pressure;BME280_temperature;BME280_humidity;BME280_pressure;Samples;Min_cycle;Max_cycle;Signal;HPM_P1;HPM_P2
2023/04/22 16:14:15;;;;;;;;;;;;;;;27.17;17.23;100204.63;5086399;27;19962;-61
2023/04/22 16:16:42;;;;;;;;;;;;;;;27.50;16.75;100200.84;5088222;28;19973;-65
2023/04/22 16:19:07;;;;;;;;;;;;;;;27.37;17.17;100202.53;5086100;28;19994;-57
2023/04/22 16:21:33;;;;;;;;;;;;;;;26.97;17.52;100200.41;5089572;28;20307;-56
2023/04/22 16:23:59;;;;;;;;;;;;;;;26.73;17.73;100197.91;5089372;28;19958;-67
2023/04/22 16:26:24;;;;;;;;;;;;;;;26.96;17.85;100189.69;5085372;27;19942;-57
2023/04/22 16:28:49;;;;;;;;;;;;;;;26.00;18.76;100192.19;5086793;28;20348;-58
2023/04/22 16:31:17;;;;;;;;;;;;;;;25.38;18.99;100197.88;5088563;28;19962;-59
2023/04/22 16:33:42;;;;;;;;;;;;;;;25.03;19.73;100200.03;5085747;28;19920;-58
2023/04/22 16:36:09;;;;;;;;;;;;;;;25.25;19.57;100193.16;5088247;28;20275;-59
2023/04/22 16:38:34;;;;;;;;;;;;;;;24.98;19.51;100191.88;5084287;28;19922;-64
2023/04/22 16:40:59;;;;;;;;;;;;;;;24.88;20.20;100192.81;5088640;28;20010;-53
2023/04/22 16:43:24;;;;;;;;;;;;;;;24.80;20.41;100193.50;5087770;28;19938;-55
2023/04/22 16:45:50;;;;;;;;;;;;;;;24.40;20.85;100189.31;5086092;28;19958;-59
2023/04/22 16:48:15;;;;;;;;;;;;;;;24.12;21.24;100200.84;5087897;28;20319;-57
2023/04/22 16:50:40;;;;;;;;;;;;;;;23.92;21.61;100188.19;5086565;28;19912;-58
2023/04/22 16:53:07;;;;;;;;;;;;;;;23.97;21.46;100179.06;5088573;28;19952;-61
2023/04/22 16:55:33;;;;;;;;;;;;;;;23.95;21.52;100176.63;5088099;28;19913;-60
2023/04/22 16:58:01;;;;;;;;;;;;;;;23.80;21.20;100173.22;5084861;28;19970;-63
2023/04/22 17:00:26;;;;;;;;;;;;;;;23.47;21.93;100187.44;5087903;28;19913;-60
2023/04/22 17:02:51;;;;;;;;;;;;;;;23.27;21.78;100177.50;5085794;28;19991;-59
2023/04/22 17:05:17;;;;;;;;;;;;;;;23.11;21.50;100195.13;5088050;28;20024;-59
2023/04/22 17:07:42;;;;;;;;;;;;;;;22.82;21.75;100187.59;5087301;28;19912;-60
2023/04/22 17:10:08;;;;;;;;;;;;;;;22.74;21.62;100183.53;5085340;28;19913;-54
2023/04/22 17:12:33;;;;;;;;;;;;;;;22.74;21.79;100178.06;5090770;28;19920;-57
2023/04/22 17:14:59;;;;;;;;;;;;;;;22.72;21.31;100188.47;5106891;28;19912;-56
2023/04/22 17:17:24;;;;;;;;;;;;;;;22.61;21.35;100197.81;5107095;28;19976;-57
2023/04/22 17:19:49;;;;;;;;;;;;;;;22.41;21.83;100207.75;5106245;28;19912;-58
2023/04/22 17:22:15;;;;;;;;;;;;;;;22.26;21.73;100212.47;5105305;28;19920;-67
2023/04/22 17:24:40;;;;;;;;;;;;;;;22.15;22.10;100200.69;5100490;28;19912;-66
2023/04/22 17:27:05;;;;;;;;;;;;;;;22.19;22.26;100196.28;5093979;28;19966;-65
2023/04/22 17:29:31;;;;;;;;;;;;;;;22.12;22.28;100193.88;5093512;28;20442;-63
2023/04/22 17:31:56;;;;;;;;;;;;;;;21.95;22.31;100188.72;5094637;28;19922;-62
2023/04/22 17:34:21;;;;;;;;;;;;;;;21.93;22.32;100184.59;5092731;28;20407;-62
2023/04/22 17:36:47;;;;;;;;;;;;;;;21.75;22.42;100189.56;5094624;28;20375;-63
2023/04/22 17:39:12;;;;;;;;;;;;;;;21.56;22.41;100178.38;5093075;28;19915;-63
2023/04/22 17:41:37;;;;;;;;;;;;;;;21.54;22.25;100176.97;5093007;28;19937;-62
2023/04/22 17:44:03;;;;;;;;;;;;;;;21.45;22.75;100173.97;5094523;28;20348;-63
2023/04/22 17:46:28;;;;;;;;;;;;;;;21.28;22.66;100168.75;5093077;28;19913;-64
2023/04/22 17:48:53;;;;;;;;;;;;;;;21.43;22.84;100168.78;5095250;28;19923;-63
2023/04/22 17:51:19;;;;;;;;;;;;;;;21.30;22.92;100160.28;5093916;28;20375;-64
2023/04/22 17:53:44;;;;;;;;;;;;;;;21.03;23.33;100159.44;5092331;28;19941;-63
2023/04/22 17:56:10;;;;;;;;;;;;;;;21.07;22.96;100159.72;5094270;28;20338;-63
2023/04/22 17:58:38;;;;;;;;;;;;;;;20.98;23.27;100159.44;5091843;28;20264;-64
2023/04/22 18:01:07;;;;;;;;;;;;;;;20.88;23.40;100165.69;5093182;28;20021;-64
2023/04/22 18:03:32;;;;;;;;;;;;;;;20.79;23.28;100175.50;5093421;28;19916;-62
2023/04/22 18:05:58;;;;;;;;;;;;;;;20.59;22.77;100167.22;5091765;28;19942;-64
2023/04/22 18:08:23;;;;;;;;;;;;;;;20.49;22.55;100166.09;5075763;28;20318;-61
2023/04/22 18:10:49;;;;;;;;;;;;;;;20.41;22.36;100172.06;5091384;28;19912;-63
2023/04/22 18:13:14;;;;;;;;;;;;;;;20.35;22.04;100172.31;5093184;28;20352;-64
2023/04/22 18:15:39;;;;;;;;;;;;;;;20.29;22.08;100174.19;5093438;28;20372;-63
2023/04/22 18:18:05;;;;;;;;;;;;;;;20.15;21.97;100178.47;5092486;28;19912;-63
2023/04/22 18:20:30;;;;;;;;;;;;;;;20.14;21.91;100172.22;5093072;28;19962;-61
2023/04/22 18:22:55;;;;;;;;;;;;;;;19.93;21.99;100176.72;5090443;28;20511;-63
2023/04/22 18:25:21;;;;;;;;;;;;;;;19.78;22.97;100179.34;5094170;28;19919;-62
2023/04/22 18:27:48;;;;;;;;;;;;;;;19.69;22.98;100182.53;5093348;28;19995;-63
2023/04/22 18:30:14;;;;;;;;;;;;;;;19.64;23.35;100184.38;5091887;28;20296;-62
2023/04/22 18:32:39;;;;;;;;;;;;;;;19.58;23.78;100183.53;5092969;28;19922;-62
2023/04/22 18:35:05;;;;;;;;;;;;;;;19.46;23.96;100189.13;5090260;28;19947;-63
2023/04/22 18:37:33;;;;;;;;;;;;;;;19.51;24.10;100178.28;5093134;28;20284;-61
2023/04/22 18:39:58;;;;;;;;;;;;;;;19.45;24.32;100181.25;5093357;28;19947;-63
2023/04/22 18:42:23;;;;;;;;;;;;;;;19.41;24.25;100189.13;5091013;28;20335;-62
2023/04/22 18:44:49;;;;;;;;;;;;;;;19.35;24.21;100192.84;5093093;28;19913;-64
2023/04/22 18:47:14;;;;;;;;;;;;;;;19.35;24.50;100181.97;5090702;28;19920;-64
2023/04/22 18:49:40;;;;;;;;;;;;;;;19.23;24.15;100182.13;5090814;28;19913;-63
2023/04/22 18:52:05;;;;;;;;;;;;;;;19.25;24.37;100188.13;5092842;28;19972;-63
2023/04/22 18:54:30;;;;;;;;;;;;;;;19.29;24.27;100177.56;5089844;28;19913;-64
2023/04/22 18:56:56;;;;;;;;;;;;;;;19.24;24.35;100185.66;5093292;28;19912;-64
2023/04/22 18:59:21;;;;;;;;;;;;;;;19.29;24.25;100183.00;5089139;28;19982;-64
2023/04/22 19:01:46;;;;;;;;;;;;;;;19.17;24.36;100179.59;5092163;28;19938;-63
2023/04/22 19:04:11;;;;;;;;;;;;;;;19.08;24.19;100185.53;5092251;28;19969;-64
2023/04/22 19:06:37;;;;;;;;;;;;;;;19.19;24.08;100175.56;5090557;28;19924;-63
2023/04/22 19:09:03;;;;;;;;;;;;;;;19.11;23.79;100176.88;5092306;28;20293;-64
2023/04/22 19:11:29;;;;;;;;;;;;;;;19.07;23.81;100170.25;5090852;28;19912;-64
2023/04/22 19:13:55;;;;;;;;;;;;;;;18.93;23.52;100169.06;5091925;28;19931;-62
2023/04/22 19:16:20;;;;;;;;;;;;;;;18.91;23.46;100176.66;5092434;28;19920;-62
2023/04/22 19:18:45;;;;;;;;;;;;;;;18.96;23.58;100173.97;5089185;28;20300;-63
2023/04/22 19:21:14;;;;;;;;;;;;;;;19.01;23.40;100173.22;5091581;28;19922;-62
2023/04/22 19:23:40;;;;;;;;;;;;;;;18.94;23.18;100171.53;5090588;28;20007;-61
2023/04/22 19:26:08;;;;;;;;;;;;;;;18.81;22.96;100165.66;5090948;28;19934;-63
2023/04/22 19:28:33;;;;;;;;;;;;;;;18.70;23.41;100170.97;5091767;28;20311;-63
2023/04/22 19:30:59;;;;;;;;;;;;;;;18.22;23.71;100107.31;5089931;28;19941;-63
2023/04/22 19:33:26;;;;;;;;;;;;;;;18.46;23.85;100159.53;5091804;28;20026;-62
2023/04/22 19:35:51;;;;;;;;;;;;;;;18.51;23.89;100162.28;5089068;28;19923;-63
2023/04/22 19:38:17;;;;;;;;;;;;;;;18.47;23.94;100157.63;5089781;28;19924;-61
2023/04/22 19:40:43;;;;;;;;;;;;;;;18.35;24.10;100163.19;5091057;28;19990;-62
2023/04/22 19:43:08;;;;;;;;;;;;;;;18.22;24.30;100155.41;5088678;28;20006;-61
2023/04/22 19:45:33;;;;;;;;;;;;;;;18.25;23.94;100138.59;5088081;28;19920;-60
2023/04/22 19:47:59;;;;;;;;;;;;;;;18.33;24.21;100138.97;5089657;28;19919;-62
2023/04/22 19:50:24;;;;;;;;;;;;;;;18.24;23.66;100140.50;5089910;28;20272;-62
2023/04/22 19:52:55;;;;;;;;;;;;;;;18.24;23.65;100137.78;5090864;28;19925;-62
2023/04/22 19:55:20;;;;;;;;;;;;;;;18.21;23.95;100137.47;5089125;28;20315;-61
2023/04/22 19:57:46;;;;;;;;;;;;;;;18.17;23.85;100140.66;5091512;28;19912;-62
2023/04/22 20:00:11;;;;;;;;;;;;;;;18.17;24.07;100145.28;5091357;28;19912;-62
2023/04/22 20:02:37;;;;;;;;;;;;;;;18.06;24.43;100130.75;5089293;28;21039;-61
2023/04/22 20:05:06;;;;;;;;;;;;;;;18.07;24.23;100126.97;5091374;28;19966;-61
2023/04/22 20:07:32;;;;;;;;;;;;;;;17.97;24.57;100124.91;5088778;28;19918;-63
2023/04/22 20:09:58;;;;;;;;;;;;;;;18.05;24.24;100122.84;5090801;28;19920;-61
2023/04/22 20:12:24;;;;;;;;;;;;;;;17.97;24.25;100127.63;5090578;28;20276;-62
2023/04/22 20:14:50;;;;;;;;;;;;;;;18.00;24.09;100118.16;5089336;28;20320;-63
2023/04/22 20:17:15;;;;;;;;;;;;;;;17.95;24.14;100116.19;5089422;28;19913;-63
2023/04/22 20:19:41;;;;;;;;;;;;;;;17.87;23.90;100107.69;5088386;28;19912;-63
2023/04/22 20:22:08;;;;;;;;;;;;;;;17.84;23.89;100102.69;5090657;28;20023;-61
2023/04/22 20:24:35;;;;;;;;;;;;;;;17.80;24.11;100096.94;5090279;28;19912;-62
2023/04/22 20:27:01;;;;;;;;;;;;;;;17.73;24.27;100094.41;5088799;28;20304;-62
2023/04/22 20:29:26;;;;;;;;;;;;;;;17.71;24.22;100088.41;5090477;28;19928;-61
2023/04/22 20:31:51;;;;;;;;;;;;;;;17.69;24.38;100089.72;5088831;28;20010;-63
2023/04/22 20:34:17;;;;;;;;;;;;;;;17.69;24.46;100085.09;5090798;28;19931;-63
2023/04/22 20:36:42;;;;;;;;;;;;;;;17.65;24.73;100085.88;5090680;28;19916;-63
2023/04/22 20:39:11;;;;;;;;;;;;;;;17.61;24.70;100088.25;5088047;28;19916;-62
2023/04/22 20:41:38;;;;;;;;;;;;;;;17.59;24.32;100084.97;5090811;28;19920;-63
2023/04/22 20:44:03;;;;;;;;;;;;;;;17.55;24.27;100086.53;5087911;28;20349;-61
2023/04/22 20:46:29;;;;;;;;;;;;;;;17.47;24.32;100079.63;5090720;28;19912;-63
2023/04/22 20:48:54;;;;;;;;;;;;;;;17.41;24.58;100084.16;5089053;28;19959;-63
2023/04/22 20:51:20;;;;;;;;;;;;;;;17.43;24.83;100081.19;5089064;28;19916;-62
2023/04/22 20:53:45;;;;;;;;;;;;;;;17.43;24.96;100070.34;5091093;28;19916;-63
2023/04/22 20:56:10;;;;;;;;;;;;;;;17.41;24.79;100076.03;5087779;28;20027;-62
2023/04/22 20:58:36;;;;;;;;;;;;;;;17.36;24.75;100075.94;5090341;28;19966;-62
2023/04/22 21:01:01;;;;;;;;;;;;;;;17.29;25.15;100075.31;5094329;28;19962;-62
2023/04/22 21:03:26;;;;;;;;;;;;;;;17.27;24.71;100071.19;5093273;28;19920;-63
2023/04/22 21:05:52;;;;;;;;;;;;;;;17.27;24.84;100073.88;5095136;28;20447;-63
2023/04/22 21:08:20;;;;;;;;;;;;;;;17.24;24.90;100058.13;5093379;28;20577;-62
2023/04/22 21:10:45;;;;;;;;;;;;;;;17.34;25.03;100074.53;5095542;28;19934;-63
2023/04/22 21:13:13;;;;;;;;;;;;;;;17.36;24.81;100075.94;5095145;28;20380;-63
2023/04/22 21:15:40;;;;;;;;;;;;;;;17.36;24.72;100075.94;5093733;28;19912;-61
2023/04/22 21:18:06;;;;;;;;;;;;;;;17.40;25.00;100076.25;5095175;28;19912;-63
2023/04/22 21:20:32;;;;;;;;;;;;;;;17.36;25.16;100083.25;5092334;28;19951;-61
2023/04/22 21:22:58;;;;;;;;;;;;;;;17.40;25.32;100076.25;5095101;28;19970;-62
2023/04/22 21:25:25;;;;;;;;;;;;;;;17.41;25.62;100077.91;5095532;28;19920;-57
2023/04/22 21:27:50;;;;;;;;;;;;;;;17.43;25.79;100075.78;5092755;28;20014;-59
2023/04/22 21:30:16;;;;;;;;;;;;;;;17.44;25.66;100080.16;5095149;28;20007;-62
2023/04/22 21:32:41;;;;;;;;;;;;;;;17.46;25.92;100069.84;5093766;28;19917;-59
2023/04/22 21:35:07;;;;;;;;;;;;;;;17.48;25.82;100073.16;5094855;28;20927;-63
2023/04/22 21:37:33;;;;;;;;;;;;;;;17.41;25.88;100072.50;5095873;28;19944;-64
2023/04/22 21:39:58;;;;;;;;;;;;;;;17.45;26.01;100072.81;5089161;28;19959;-64
2023/04/22 21:42:23;;;;;;;;;;;;;;;17.41;26.05;100070.59;5093005;28;19985;-63
2023/04/22 21:44:49;;;;;;;;;;;;;;;17.34;26.13;100078.06;5091814;28;19927;-63
2023/04/22 21:47:14;;;;;;;;;;;;;;;17.31;26.24;100075.88;5093467;28;20002;-69
2023/04/22 21:49:39;;;;;;;;;;;;;;;17.30;26.18;100070.69;5096924;28;19912;-73
2023/04/22 21:52:04;;;;;;;;;;;;;;;17.33;26.18;100071.03;5092365;28;20355;-72
2023/04/22 21:54:30;;;;;;;;;;;;;;;17.34;26.01;100056.34;5099992;28;19960;-73
2023/04/22 21:56:56;;;;;;;;;;;;;;;17.35;26.11;100063.44;5094798;28;19923;-72
2023/04/22 21:59:23;;;;;;;;;;;;;;;17.31;26.26;100056.88;5095641;28;20121;-71
2023/04/22 22:01:49;;;;;;;;;;;;;;;17.32;26.14;100057.69;5100582;28;19916;-72
2023/04/22 22:04:14;;;;;;;;;;;;;;;17.31;26.56;100062.31;5098539;28;19935;-71
2023/04/22 22:06:40;;;;;;;;;;;;;;;17.29;26.56;100056.31;5100644;28;19923;-72
2023/04/22 22:09:06;;;;;;;;;;;;;;;17.27;26.66;100057.59;5097832;28;19912;-71
2023/04/22 22:11:31;;;;;;;;;;;;;;;17.24;26.59;100056.22;5080733;28;20261;-71
2023/04/22 22:13:56;;;;;;;;;;;;;;;17.25;26.73;100052.41;5094092;28;20439;-68
2023/04/22 22:16:22;;;;;;;;;;;;;;;17.28;26.51;100053.84;5093975;28;19912;-73
2023/04/22 22:18:48;;;;;;;;;;;;;;;17.25;26.56;100044.28;5092919;28;19920;-71
2023/04/22 22:21:14;;;;;;;;;;;;;;;17.31;26.78;100046.03;5093869;28;19920;-69
2023/04/22 22:23:39;;;;;;;;;;;;;;;17.27;26.50;100038.59;5092314;28;19912;-71
2023/04/22 22:26:05;;;;;;;;;;;;;;;17.21;26.42;100035.81;5093387;28;19966;-74
2023/04/22 22:28:30;;;;;;;;;;;;;;;17.16;26.52;100030.31;5093650;28;19911;-71
2023/04/22 22:31:01;;;;;;;;;;;;;;;17.18;26.55;100040.94;5094644;28;19958;-72
2023/04/22 22:33:26;;;;;;;;;;;;;;;17.14;26.64;100039.75;5075299;28;19920;-72
2023/04/22 22:35:51;;;;;;;;;;;;;;;17.17;26.65;100044.72;5091354;28;19912;-67
2023/04/22 22:38:21;;;;;;;;;;;;;;;17.13;26.86;100044.38;5094154;28;19912;-70
2023/04/22 22:40:46;;;;;;;;;;;;;;;17.05;27.04;100041.25;5091347;28;19934;-67
2023/04/22 22:43:12;;;;;;;;;;;;;;;17.11;27.46;100041.09;5092881;28;19916;-70
2023/04/22 22:45:37;;;;;;;;;;;;;;;17.11;26.89;100041.09;5092499;28;19920;-69
2023/04/22 22:48:03;;;;;;;;;;;;;;;17.13;26.84;100038.94;5092470;28;19912;-70
2023/04/22 22:50:28;;;;;;;;;;;;;;;17.12;26.83;100039.19;5092178;28;19995;-68
2023/04/22 22:52:54;;;;;;;;;;;;;;;17.10;27.20;100039.44;5091285;28;20363;-69
2023/04/22 22:55:19;;;;;;;;;;;;;;;17.05;26.98;100043.97;5091608;28;19912;-69
2023/04/22 22:57:44;;;;;;;;;;;;;;;17.03;26.96;100041.50;5093192;28;20614;-69
2023/04/22 23:00:11;;;;;;;;;;;;;;;17.01;26.75;100038.22;5092037;28;20411;-70
2023/04/22 23:02:36;;;;;;;;;;;;;;;17.01;27.00;100046.34;5093871;28;19954;-68
2023/04/22 23:05:02;;;;;;;;;;;;;;;16.99;26.95;100040.34;5090097;28;20069;-70
2023/04/22 23:07:27;;;;;;;;;;;;;;;16.94;27.28;100038.38;5092583;28;19958;-70
2023/04/22 23:09:52;;;;;;;;;;;;;;;16.94;27.01;100040.28;5093365;28;19912;-70
2023/04/22 23:12:18;;;;;;;;;;;;;;;16.91;27.42;100038.06;5091556;28;19919;-67
2023/04/22 23:14:43;;;;;;;;;;;;;;;16.91;27.14;100049.72;5091350;28;19977;-66
2023/04/22 23:17:08;;;;;;;;;;;;;;;16.89;27.52;100051.84;5089232;28;19926;-67
2023/04/22 23:19:34;;;;;;;;;;;;;;;16.88;27.46;100041.25;5090564;28;19919;-67
2023/04/22 23:21:59;;;;;;;;;;;;;;;16.88;27.54;100055.63;5090377;28;19939;-68
2023/04/22 23:24:25;;;;;;;;;;;;;;;16.88;27.77;100033.13;5090444;28;20380;-67
2023/04/22 23:26:50;;;;;;;;;;;;;;;16.85;28.68;100053.44;5092149;28;20442;-67
2023/04/22 23:29:17;;;;;;;;;;;;;;;16.88;28.88;100036.63;5088381;28;19912;-68
2023/04/22 23:31:43;;;;;;;;;;;;;;;16.93;28.79;100034.03;5091893;28;20539;-67
2023/04/22 23:34:09;;;;;;;;;;;;;;;16.88;28.51;100031.22;5093810;28;19912;-68
2023/04/22 23:36:38;;;;;;;;;;;;;;;16.86;28.70;100035.25;5091751;28;20011;-69
2023/04/22 23:39:04;;;;;;;;;;;;;;;16.82;28.38;100030.31;5090732;28;19923;-66
2023/04/22 23:41:30;;;;;;;;;;;;;;;16.84;28.70;100027.34;5091100;28;20346;-66
2023/04/22 23:43:56;;;;;;;;;;;;;;;16.85;28.37;100020.88;5092897;28;19916;-66
2023/04/22 23:46:21;;;;;;;;;;;;;;;16.80;28.39;100018.84;5091614;28;19912;-67
2023/04/22 23:48:46;;;;;;;;;;;;;;;16.83;28.33;100020.31;5088135;28;19912;-67
2023/04/22 23:51:15;;;;;;;;;;;;;;;16.88;28.46;100011.41;5091035;28;19950;-67
2023/04/22 23:53:40;;;;;;;;;;;;;;;16.91;28.49;100013.66;5088602;28;19971;-68
2023/04/22 23:56:06;;;;;;;;;;;;;;;16.94;28.09;100008.56;5091088;28;19916;-64
2023/04/22 23:58:31;;;;;;;;;;;;;;;16.94;28.05;100010.44;5090101;28;19912;-68
